Impacts METAR Board
IDs:

KTPA - Tampa Intl Arpt, FL, US

Updated at: 2000 UTC 24 Apr 2018
Potential Impact None Slight Moderate High
Time 24/08Z 24/09Z 24/10Z 24/11Z 24/12Z 24/13Z 24/14Z 24/15Z 24/16Z 24/17Z 24/18Z 24/19Z 24/20Z
Temp73 73 72 71 72 73 75 76 77 78 79 80 79
Dewpt68 67 67 66 65 64 64 61 60 60 58 58 59
Altim29.95 29.94 29.95 29.96 29.98 30.00 30.00 30.01 30.01 30.00 29.97 29.96 29.94
VIS10 10 10 10 10 10 10 10 10 10 10 10 10
CIG13 15 15 19 -- -- -- -- -- -- -- -- --
CoverBKNBKNOVCOVCFEWSCTSCTFEWFEWFEWFEWFEWFEW
FltCatMVFRMVFRMVFRMVFRVFRVFRVFRVFRVFRVFRVFRVFRVFR
WX--------------------------
WDir280280310300320280290270260270250270260
WSpd5 7 5 4 3 8 7 9 8 11 10 12 9
WGst-- -- -- -- -- -- -- -- 14 -- -- -- --
Raw hourly METARs
KTPA 240753Z 28005KT 10SM BKN013 BKN024 23/20 A2995 RMK AO2 SLP140 T02280200
KTPA 240853Z 28007KT 10SM BKN015 23/19 A2994 RMK AO2 SLP139 T02280194 57003
KTPA 240953Z 31005KT 10SM OVC015 22/19 A2995 RMK AO2 SLP141 T02220194
KTPA 241053Z 30004KT 10SM OVC019 22/19 A2996 RMK AO2 SLP146 T02170189
KTPA 241153Z 32003KT 10SM FEW020 FEW200 22/18 A2998 RMK AO2 SLP151 T02220183 10239 20217 51010
KTPA 241253Z 28008KT 10SM SCT018 23/18 A3000 RMK AO2 SLP157 T02280178
KTPA 241353Z 29007KT 10SM SCT020 24/18 A3000 RMK AO2 SLP159 T02390178
KTPA 241453Z 27009KT 10SM FEW029 24/16 A3001 RMK AO2 SLP162 T02440161 51011
KTPA 241553Z 26008G14KT 10SM FEW035 25/16 A3001 RMK AO2 SLP163 T02500156
KTPA 241653Z 27011KT 10SM FEW040 26/16 A3000 RMK AO2 SLP157 T02560156
KTPA 241753Z 25010KT 10SM FEW045 FEW100 26/14 A2997 RMK AO2 SLP149 T02610144 10261 20222 58014
KTPA 241853Z 27012KT 10SM FEW045 FEW250 27/14 A2996 RMK AO2 SLP145 CB DSNT SE T02670144
KTPA 241953Z 26009KT 10SM FEW045 FEW100 FEW350 26/15 A2994 RMK AO2 SLP139 CB DSNT SE T02610150



Page loaded:  20:54 UTC  |   01:54 PM Pacific  |   02:54 PM Mountain  |   03:54 PM Central  |   04:54 PM Eastern

 

ADVISORIES

FORECASTS

FORECASTS

OBSERVATIONS

USER TOOLS

ABOUT US